Strona główna
METAR-TAF:

METAR-TAF

Lotnisko :

Indianapolis, Indiana, Stany Zjednoczone

Szerokość geograficzna: 39-50-37N, Długość geograficzna: 085-53-49W, wysokość: 263 m

Aktualna obserwacja pogody

Raport powstał 15 minut temu, godzina 22:55 UTC
Wiatr 5 kt od północny wschód
Temperatura -4°C
Wilgotność 93%
Ciśnienie 1033 hPa
Widzialność: 16.1 km
Zachmurzenie całkowite na wysokości 4200 ft

METAR: KMQJ 112255Z AUTO 04005KT 10SM OVC042 M04/M05 A3051 RMK AO1

czas: 16:10 (23:10 UTC)


TAF: brakujący

Obserwacja i prognoza pogody dla ponad 4000 lotnisk (raport METAR i TAF).

Dostępne stacje oznaczono żółtymi i czerwonymi punktami na mapie.

Najedź kursorem aby zobaczyć nazwę stacji.

Kliknij aby zobaczyć obserwacje i prognozy pogody.

Aby zmienić mapę: kliknij na zielony przycisk z czarnym krzyżykiem, aby powiększyć; na zielony przycisk z myślnikiem, aby pomniejszyć; na zielone strzałki, aby przejść do map sąsiednich.


METAR-TAF: